Shady Lake, New Jersey
Current Conditions -  °F | °C
As of 9:53 AM on Friday 19 Dec 2014 (Local Time) from KFWN Reporting Station
Overcast Overcast  
Wind Chill: 24°   Ceiling: 3300
Heat Index: 32°   Visibility: 10mi
Dew Point: 19°   Wind: 9mph
Humidity: 59%   Direction: 300°WNW
Pressure: 30.07"   Gusts: NA
Location:  41.0879°N, 74.3771°W
Report Text: KFWN 191453Z AUTO 30008KT 250V340 10SM OVC033 00/M07 A3007 RMK AO2 SLP188 T00001072 53025
Loading
Personal Weather Stations






























Interactive Weather Map New forecast layout! Learn more

10-Day Weather Forecast

Advertisements
Track Severe Weather on mobile